sensor_id;sensor_type;location;lat;lon;timestamp;pressure;altitude;pressure_sealevel;temperature;humidity
19827;BME280;10074;52.018;4.726;2023-12-20T00:04:07;46289.44;;;-144.79;100.00
19827;BME280;10074;52.018;4.726;2023-12-20T00:09:08;46283.41;;;-144.79;100.00
19827;BME280;10074;52.018;4.726;2023-12-20T00:14:08;46285.41;;;-144.79;100.00
19827;BME280;10074;52.018;4.726;2023-12-20T00:19:09;46287.44;;;-144.79;100.00
19827;BME280;10074;52.018;4.726;2023-12-20T00:24:09;46275.41;;;-144.79;100.00
19827;BME280;10074;52.018;4.726;2023-12-20T00:29:10;46285.41;;;-144.79;100.00
19827;BME280;10074;52.018;4.726;2023-12-20T00:34:10;46281.41;;;-144.79;100.00
19827;BME280;10074;52.018;4.726;2023-12-20T00:39:11;46283.41;;;-144.79;100.00
19827;BME280;10074;52.018;4.726;2023-12-20T00:44:14;46275.41;;;-144.79;100.00
19827;BME280;10074;52.018;4.726;2023-12-20T00:49:15;46283.41;;;-144.79;100.00
19827;BME280;10074;52.018;4.726;2023-12-20T00:54:15;46285.41;;;-144.79;100.00
19827;BME280;10074;52.018;4.726;2023-12-20T00:59:16;46269.38;;;-144.79;100.00
19827;BME280;10074;52.018;4.726;2023-12-20T01:04:17;46271.38;;;-144.79;100.00
19827;BME280;10074;52.018;4.726;2023-12-20T01:09:20;46267.38;;;-144.79;100.00
19827;BME280;10074;52.018;4.726;2023-12-20T01:14:23;46269.38;;;-144.79;100.00
19827;BME280;10074;52.018;4.726;2023-12-20T01:19:24;46277.41;;;-144.79;100.00
19827;BME280;10074;52.018;4.726;2023-12-20T01:24:25;46267.38;;;-144.79;100.00
19827;BME280;10074;52.018;4.726;2023-12-20T01:29:25;46269.38;;;-144.79;100.00
19827;BME280;10074;52.018;4.726;2023-12-20T01:34:25;46279.41;;;-144.79;100.00
19827;BME280;10074;52.018;4.726;2023-12-20T01:39:26;46273.38;;;-144.79;100.00
19827;BME280;10074;52.018;4.726;2023-12-20T01:44:27;46273.38;;;-144.79;100.00
19827;BME280;10074;52.018;4.726;2023-12-20T01:49:27;46275.41;;;-144.79;100.00
19827;BME280;10074;52.018;4.726;2023-12-20T01:54:28;46271.38;;;-144.79;100.00
19827;BME280;10074;52.018;4.726;2023-12-20T01:59:29;46275.41;;;-144.79;100.00
19827;BME280;10074;52.018;4.726;2023-12-20T02:04:29;46269.38;;;-144.79;100.00
19827;BME280;10074;52.018;4.726;2023-12-20T02:09:30;46267.38;;;-144.79;100.00
19827;BME280;10074;52.018;4.726;2023-12-20T02:14:30;46279.41;;;-144.79;100.00
19827;BME280;10074;52.018;4.726;2023-12-20T02:19:30;46275.41;;;-144.79;100.00
19827;BME280;10074;52.018;4.726;2023-12-20T02:24:32;46277.41;;;-144.79;100.00
19827;BME280;10074;52.018;4.726;2023-12-20T02:29:35;46275.41;;;-144.79;100.00
19827;BME280;10074;52.018;4.726;2023-12-20T02:34:36;46269.38;;;-144.79;100.00
19827;BME280;10074;52.018;4.726;2023-12-20T02:39:36;46279.41;;;-144.79;100.00
19827;BME280;10074;52.018;4.726;2023-12-20T02:44:36;46269.38;;;-144.79;100.00
19827;BME280;10074;52.018;4.726;2023-12-20T02:49:37;46273.38;;;-144.79;100.00
19827;BME280;10074;52.018;4.726;2023-12-20T02:54:37;46267.38;;;-144.79;100.00
19827;BME280;10074;52.018;4.726;2023-12-20T02:59:38;46275.41;;;-144.79;100.00
19827;BME280;10074;52.018;4.726;2023-12-20T03:04:38;46271.38;;;-144.79;100.00
19827;BME280;10074;52.018;4.726;2023-12-20T03:09:38;46273.38;;;-144.79;100.00
19827;BME280;10074;52.018;4.726;2023-12-20T03:14:39;46275.41;;;-144.79;100.00
19827;BME280;10074;52.018;4.726;2023-12-20T03:19:39;46279.41;;;-144.79;100.00
19827;BME280;10074;52.018;4.726;2023-12-20T03:24:40;46273.38;;;-144.79;100.00
19827;BME280;10074;52.018;4.726;2023-12-20T03:29:41;46275.41;;;-144.79;100.00
19827;BME280;10074;52.018;4.726;2023-12-20T03:34:41;46283.41;;;-144.79;100.00
19827;BME280;10074;52.018;4.726;2023-12-20T03:39:41;46277.41;;;-144.79;100.00
19827;BME280;10074;52.018;4.726;2023-12-20T03:44:41;46269.38;;;-144.79;100.00
19827;BME280;10074;52.018;4.726;2023-12-20T03:49:42;46271.38;;;-144.79;100.00
19827;BME280;10074;52.018;4.726;2023-12-20T03:54:42;46271.38;;;-144.79;100.00
19827;BME280;10074;52.018;4.726;2023-12-20T03:59:43;46271.38;;;-144.79;100.00
19827;BME280;10074;52.018;4.726;2023-12-20T04:04:43;46273.38;;;-144.79;100.00
19827;BME280;10074;52.018;4.726;2023-12-20T04:09:43;46271.38;;;-144.79;100.00
19827;BME280;10074;52.018;4.726;2023-12-20T04:14:44;46263.38;;;-144.79;100.00
19827;BME280;10074;52.018;4.726;2023-12-20T04:19:44;46271.38;;;-144.79;100.00
19827;BME280;10074;52.018;4.726;2023-12-20T04:24:44;46271.38;;;-144.79;100.00
19827;BME280;10074;52.018;4.726;2023-12-20T04:29:45;46271.38;;;-144.79;100.00
19827;BME280;10074;52.018;4.726;2023-12-20T04:34:45;46271.38;;;-144.79;100.00
19827;BME280;10074;52.018;4.726;2023-12-20T04:39:46;46273.38;;;-144.79;100.00
19827;BME280;10074;52.018;4.726;2023-12-20T04:44:46;46277.41;;;-144.79;100.00
19827;BME280;10074;52.018;4.726;2023-12-20T04:49:46;46267.38;;;-144.79;100.00
19827;BME280;10074;52.018;4.726;2023-12-20T04:54:46;46261.34;;;-144.79;100.00
19827;BME280;10074;52.018;4.726;2023-12-20T04:59:47;46261.34;;;-144.79;100.00
19827;BME280;10074;52.018;4.726;2023-12-20T05:04:47;46267.38;;;-144.79;100.00
19827;BME280;10074;52.018;4.726;2023-12-20T05:09:48;46267.38;;;-144.79;100.00
19827;BME280;10074;52.018;4.726;2023-12-20T05:14:48;46273.38;;;-144.79;100.00
19827;BME280;10074;52.018;4.726;2023-12-20T05:19:48;46267.38;;;-144.79;100.00
19827;BME280;10074;52.018;4.726;2023-12-20T05:24:49;46263.38;;;-144.79;100.00
19827;BME280;10074;52.018;4.726;2023-12-20T05:29:49;46259.34;;;-144.79;100.00
19827;BME280;10074;52.018;4.726;2023-12-20T05:34:50;46271.38;;;-144.79;100.00
19827;BME280;10074;52.018;4.726;2023-12-20T05:39:51;46265.38;;;-144.79;100.00
19827;BME280;10074;52.018;4.726;2023-12-20T05:44:51;46265.38;;;-144.79;100.00
19827;BME280;10074;52.018;4.726;2023-12-20T05:49:51;46267.38;;;-144.79;100.00
19827;BME280;10074;52.018;4.726;2023-12-20T05:54:51;46267.38;;;-144.79;100.00
19827;BME280;10074;52.018;4.726;2023-12-20T05:59:52;46271.38;;;-144.79;100.00
19827;BME280;10074;52.018;4.726;2023-12-20T06:04:53;46261.34;;;-144.79;100.00
19827;BME280;10074;52.018;4.726;2023-12-20T06:09:53;46263.38;;;-144.79;100.00
19827;BME280;10074;52.018;4.726;2023-12-20T06:14:53;46269.38;;;-144.79;100.00
19827;BME280;10074;52.018;4.726;2023-12-20T06:19:53;46265.38;;;-144.79;100.00
19827;BME280;10074;52.018;4.726;2023-12-20T06:24:54;46263.38;;;-144.79;100.00
19827;BME280;10074;52.018;4.726;2023-12-20T06:29:55;46265.38;;;-144.79;100.00
19827;BME280;10074;52.018;4.726;2023-12-20T06:34:55;46255.34;;;-144.79;100.00
19827;BME280;10074;52.018;4.726;2023-12-20T06:39:56;46271.38;;;-144.79;100.00
19827;BME280;10074;52.018;4.726;2023-12-20T06:44:56;46265.38;;;-144.79;100.00
19827;BME280;10074;52.018;4.726;2023-12-20T06:49:57;46267.38;;;-144.79;100.00
19827;BME280;10074;52.018;4.726;2023-12-20T06:54:57;46265.38;;;-144.79;100.00
19827;BME280;10074;52.018;4.726;2023-12-20T06:59:59;46259.34;;;-144.79;100.00
19827;BME280;10074;52.018;4.726;2023-12-20T07:05:00;46257.34;;;-144.79;100.00
19827;BME280;10074;52.018;4.726;2023-12-20T07:10:01;46263.38;;;-144.79;100.00
19827;BME280;10074;52.018;4.726;2023-12-20T07:15:02;46255.34;;;-144.79;100.00
19827;BME280;10074;52.018;4.726;2023-12-20T07:20:03;46259.34;;;-144.79;100.00
19827;BME280;10074;52.018;4.726;2023-12-20T07:25:04;46253.34;;;-144.79;100.00
19827;BME280;10074;52.018;4.726;2023-12-20T07:30:05;46251.34;;;-144.79;100.00
19827;BME280;10074;52.018;4.726;2023-12-20T07:35:06;46249.34;;;-144.79;100.00
19827;BME280;10074;52.018;4.726;2023-12-20T07:40:08;46239.31;;;-144.79;100.00
19827;BME280;10074;52.018;4.726;2023-12-20T07:45:09;46233.28;;;-144.79;100.00
19827;BME280;10074;52.018;4.726;2023-12-20T07:50:11;46239.31;;;-144.79;100.00
19827;BME280;10074;52.018;4.726;2023-12-20T07:55:12;46227.28;;;-144.79;100.00
19827;BME280;10074;52.018;4.726;2023-12-20T08:00:12;46237.31;;;-144.79;100.00
19827;BME280;10074;52.018;4.726;2023-12-20T08:05:13;46233.28;;;-144.79;100.00
19827;BME280;10074;52.018;4.726;2023-12-20T08:10:13;46229.28;;;-144.79;100.00
19827;BME280;10074;52.018;4.726;2023-12-20T08:15:14;46231.28;;;-144.79;100.00
19827;BME280;10074;52.018;4.726;2023-12-20T08:20:14;46221.25;;;-144.79;100.00
19827;BME280;10074;52.018;4.726;2023-12-20T08:25:15;46223.25;;;-144.79;100.00
19827;BME280;10074;52.018;4.726;2023-12-20T08:30:15;46243.31;;;-144.79;100.00
19827;BME280;10074;52.018;4.726;2023-12-20T08:35:20;46239.31;;;-144.79;100.00
19827;BME280;10074;52.018;4.726;2023-12-20T08:40:21;46237.31;;;-144.79;100.00
19827;BME280;10074;52.018;4.726;2023-12-20T08:45:21;46235.28;;;-144.79;100.00
19827;BME280;10074;52.018;4.726;2023-12-20T08:50:22;46239.31;;;-144.79;100.00
19827;BME280;10074;52.018;4.726;2023-12-20T08:55:22;46233.28;;;-144.79;100.00
19827;BME280;10074;52.018;4.726;2023-12-20T09:00:22;46233.28;;;-144.79;100.00
19827;BME280;10074;52.018;4.726;2023-12-20T09:05:27;46229.28;;;-144.79;100.00
19827;BME280;10074;52.018;4.726;2023-12-20T09:10:28;46237.31;;;-144.79;100.00
19827;BME280;10074;52.018;4.726;2023-12-20T09:15:29;46241.31;;;-144.79;100.00
19827;BME280;10074;52.018;4.726;2023-12-20T09:20:30;46241.31;;;-144.79;100.00
19827;BME280;10074;52.018;4.726;2023-12-20T09:25:31;46241.31;;;-144.79;100.00
19827;BME280;10074;52.018;4.726;2023-12-20T09:30:31;46245.31;;;-144.79;100.00
19827;BME280;10074;52.018;4.726;2023-12-20T09:35:32;46235.28;;;-144.79;100.00
19827;BME280;10074;52.018;4.726;2023-12-20T09:40:32;46243.31;;;-144.79;100.00
19827;BME280;10074;52.018;4.726;2023-12-20T09:45:35;46243.31;;;-144.79;100.00
19827;BME280;10074;52.018;4.726;2023-12-20T09:50:36;46245.31;;;-144.79;100.00
19827;BME280;10074;52.018;4.726;2023-12-20T09:55:37;46243.31;;;-144.79;100.00
19827;BME280;10074;52.018;4.726;2023-12-20T10:00:38;46237.31;;;-144.79;100.00
19827;BME280;10074;52.018;4.726;2023-12-20T10:05:43;46247.31;;;-144.79;100.00
19827;BME280;10074;52.018;4.726;2023-12-20T10:10:43;46247.31;;;-144.79;100.00
19827;BME280;10074;52.018;4.726;2023-12-20T10:15:44;46245.31;;;-144.79;100.00
19827;BME280;10074;52.018;4.726;2023-12-20T10:20:45;46251.34;;;-144.79;100.00
19827;BME280;10074;52.018;4.726;2023-12-20T10:25:57;46251.34;;;-144.79;100.00
19827;BME280;10074;52.018;4.726;2023-12-20T10:31:00;46257.34;;;-144.79;100.00
19827;BME280;10074;52.018;4.726;2023-12-20T10:36:01;46261.34;;;-144.79;100.00
19827;BME280;10074;52.018;4.726;2023-12-20T10:41:04;46259.34;;;-144.79;100.00
19827;BME280;10074;52.018;4.726;2023-12-20T10:46:06;46257.34;;;-144.79;100.00
19827;BME280;10074;52.018;4.726;2023-12-20T10:51:08;46259.34;;;-144.79;100.00
19827;BME280;10074;52.018;4.726;2023-12-20T10:56:11;46265.38;;;-144.79;100.00
19827;BME280;10074;52.018;4.726;2023-12-20T11:01:16;46255.34;;;-144.79;100.00
19827;BME280;10074;52.018;4.726;2023-12-20T11:12:06;46261.34;;;-144.79;100.00
19827;BME280;10074;52.018;4.726;2023-12-20T11:17:10;46257.34;;;-144.79;100.00
19827;BME280;10074;52.018;4.726;2023-12-20T11:22:14;46251.34;;;-144.79;100.00
19827;BME280;10074;52.018;4.726;2023-12-20T11:27:19;46257.34;;;-144.79;100.00
19827;BME280;10074;52.018;4.726;2023-12-20T11:37:36;46263.38;;;-144.79;100.00
19827;BME280;10074;52.018;4.726;2023-12-20T11:42:41;46259.34;;;-144.79;100.00
19827;BME280;10074;52.018;4.726;2023-12-20T11:47:47;46267.38;;;-144.79;100.00
19827;BME280;10074;52.018;4.726;2023-12-20T11:52:48;46259.34;;;-144.79;100.00
19827;BME280;10074;52.018;4.726;2023-12-20T11:57:52;46259.34;;;-144.79;100.00
19827;BME280;10074;52.018;4.726;2023-12-20T12:02:58;46271.38;;;-144.79;100.00
19827;BME280;10074;52.018;4.726;2023-12-20T12:07:58;46261.34;;;-144.79;100.00
19827;BME280;10074;52.018;4.726;2023-12-20T12:13:01;46267.38;;;-144.79;100.00
19827;BME280;10074;52.018;4.726;2023-12-20T12:18:02;46263.38;;;-144.79;100.00
19827;BME280;10074;52.018;4.726;2023-12-20T12:23:05;46261.34;;;-144.79;100.00
19827;BME280;10074;52.018;4.726;2023-12-20T12:28:09;46257.34;;;-144.79;100.00
19827;BME280;10074;52.018;4.726;2023-12-20T12:33:11;46265.38;;;-144.79;100.00
19827;BME280;10074;52.018;4.726;2023-12-20T12:38:12;46265.38;;;-144.79;100.00
19827;BME280;10074;52.018;4.726;2023-12-20T12:43:13;46261.34;;;-144.79;100.00
19827;BME280;10074;52.018;4.726;2023-12-20T12:48:15;46263.38;;;-144.79;100.00
19827;BME280;10074;52.018;4.726;2023-12-20T12:53:16;46251.34;;;-144.79;100.00
19827;BME280;10074;52.018;4.726;2023-12-20T12:58:18;46259.34;;;-144.79;100.00
19827;BME280;10074;52.018;4.726;2023-12-20T13:03:19;46261.34;;;-144.79;100.00
19827;BME280;10074;52.018;4.726;2023-12-20T13:08:19;46263.38;;;-144.79;100.00
19827;BME280;10074;52.018;4.726;2023-12-20T13:13:20;46267.38;;;-144.79;100.00
19827;BME280;10074;52.018;4.726;2023-12-20T13:18:21;46263.38;;;-144.79;100.00
19827;BME280;10074;52.018;4.726;2023-12-20T13:23:21;46265.38;;;-144.79;100.00
19827;BME280;10074;52.018;4.726;2023-12-20T13:28:22;46263.38;;;-144.79;100.00
19827;BME280;10074;52.018;4.726;2023-12-20T13:33:22;46259.34;;;-144.79;100.00
19827;BME280;10074;52.018;4.726;2023-12-20T13:38:22;46255.34;;;-144.79;100.00
19827;BME280;10074;52.018;4.726;2023-12-20T13:43:23;46263.38;;;-144.79;100.00
19827;BME280;10074;52.018;4.726;2023-12-20T13:48:25;46259.34;;;-144.79;100.00
19827;BME280;10074;52.018;4.726;2023-12-20T13:53:25;46267.38;;;-144.79;100.00
19827;BME280;10074;52.018;4.726;2023-12-20T13:58:27;46265.38;;;-144.79;100.00
19827;BME280;10074;52.018;4.726;2023-12-20T14:03:27;46259.34;;;-144.79;100.00
19827;BME280;10074;52.018;4.726;2023-12-20T14:08:28;46271.38;;;-144.79;100.00
19827;BME280;10074;52.018;4.726;2023-12-20T14:13:28;46263.38;;;-144.79;100.00
19827;BME280;10074;52.018;4.726;2023-12-20T14:18:29;46259.34;;;-144.79;100.00
19827;BME280;10074;52.018;4.726;2023-12-20T14:23:30;46259.34;;;-144.79;100.00
19827;BME280;10074;52.018;4.726;2023-12-20T14:28:31;46255.34;;;-144.79;100.00
19827;BME280;10074;52.018;4.726;2023-12-20T14:33:31;46245.31;;;-144.79;100.00
19827;BME280;10074;52.018;4.726;2023-12-20T14:38:32;46241.31;;;-144.79;100.00
19827;BME280;10074;52.018;4.726;2023-12-20T14:43:32;46243.31;;;-144.79;100.00
19827;BME280;10074;52.018;4.726;2023-12-20T14:48:32;46229.28;;;-144.79;100.00
19827;BME280;10074;52.018;4.726;2023-12-20T14:53:33;46239.31;;;-144.79;100.00
19827;BME280;10074;52.018;4.726;2023-12-20T14:58:36;46231.28;;;-144.79;100.00
19827;BME280;10074;52.018;4.726;2023-12-20T15:03:37;46225.28;;;-144.79;100.00
19827;BME280;10074;52.018;4.726;2023-12-20T15:08:40;46225.28;;;-144.79;100.00
19827;BME280;10074;52.018;4.726;2023-12-20T15:13:41;46239.31;;;-144.79;100.00
19827;BME280;10074;52.018;4.726;2023-12-20T15:18:41;46243.31;;;-144.79;100.00
19827;BME280;10074;52.018;4.726;2023-12-20T15:23:42;46239.31;;;-144.79;100.00
19827;BME280;10074;52.018;4.726;2023-12-20T15:28:52;46233.28;;;-144.79;100.00
19827;BME280;10074;52.018;4.726;2023-12-20T15:33:55;46227.28;;;-144.79;100.00
19827;BME280;10074;52.018;4.726;2023-12-20T15:38:55;46239.31;;;-144.79;100.00
19827;BME280;10074;52.018;4.726;2023-12-20T15:43:58;46237.31;;;-144.79;100.00
19827;BME280;10074;52.018;4.726;2023-12-20T15:49:00;46241.31;;;-144.79;100.00
19827;BME280;10074;52.018;4.726;2023-12-20T15:54:02;46249.34;;;-144.79;100.00
19827;BME280;10074;52.018;4.726;2023-12-20T15:59:08;46231.28;;;-144.79;100.00
19827;BME280;10074;52.018;4.726;2023-12-20T16:04:10;46237.31;;;-144.79;100.00
19827;BME280;10074;52.018;4.726;2023-12-20T16:09:12;46239.31;;;-144.79;100.00
19827;BME280;10074;52.018;4.726;2023-12-20T16:14:12;46241.31;;;-144.79;100.00
19827;BME280;10074;52.018;4.726;2023-12-20T16:19:18;46235.28;;;-144.79;100.00
19827;BME280;10074;52.018;4.726;2023-12-20T16:24:19;46251.34;;;-144.79;100.00
19827;BME280;10074;52.018;4.726;2023-12-20T16:29:20;46237.31;;;-144.79;100.00
19827;BME280;10074;52.018;4.726;2023-12-20T16:34:21;46249.34;;;-144.79;100.00
19827;BME280;10074;52.018;4.726;2023-12-20T16:39:23;46239.31;;;-144.79;100.00
19827;BME280;10074;52.018;4.726;2023-12-20T16:44:23;46247.31;;;-144.79;100.00
19827;BME280;10074;52.018;4.726;2023-12-20T16:49:24;46231.28;;;-144.79;100.00
19827;BME280;10074;52.018;4.726;2023-12-20T16:54:24;46251.34;;;-144.79;100.00
19827;BME280;10074;52.018;4.726;2023-12-20T16:59:25;46249.34;;;-144.79;100.00
19827;BME280;10074;52.018;4.726;2023-12-20T17:04:30;46261.34;;;-144.79;100.00
19827;BME280;10074;52.018;4.726;2023-12-20T17:09:33;46259.34;;;-144.79;100.00
19827;BME280;10074;52.018;4.726;2023-12-20T17:14:33;46259.34;;;-144.79;100.00
19827;BME280;10074;52.018;4.726;2023-12-20T17:19:36;46269.38;;;-144.79;100.00
19827;BME280;10074;52.018;4.726;2023-12-20T17:24:37;46271.38;;;-144.79;100.00
19827;BME280;10074;52.018;4.726;2023-12-20T17:29:38;46259.34;;;-144.79;100.00
19827;BME280;10074;52.018;4.726;2023-12-20T17:34:42;46271.38;;;-144.79;100.00
19827;BME280;10074;52.018;4.726;2023-12-20T17:39:44;46271.38;;;-144.79;100.00
19827;BME280;10074;52.018;4.726;2023-12-20T17:44:44;46277.41;;;-144.79;100.00
19827;BME280;10074;52.018;4.726;2023-12-20T17:49:45;46277.41;;;-144.79;100.00
19827;BME280;10074;52.018;4.726;2023-12-20T17:54:47;46271.38;;;-144.79;100.00
19827;BME280;10074;52.018;4.726;2023-12-20T17:59:49;46271.38;;;-144.79;100.00
19827;BME280;10074;52.018;4.726;2023-12-20T18:04:50;46277.41;;;-144.79;100.00
19827;BME280;10074;52.018;4.726;2023-12-20T18:09:50;46275.41;;;-144.79;100.00
19827;BME280;10074;52.018;4.726;2023-12-20T18:14:50;46281.41;;;-144.79;100.00
19827;BME280;10074;52.018;4.726;2023-12-20T18:19:52;46289.44;;;-144.79;100.00
19827;BME280;10074;52.018;4.726;2023-12-20T18:24:53;46283.41;;;-144.79;100.00
19827;BME280;10074;52.018;4.726;2023-12-20T18:29:54;46285.41;;;-144.79;100.00
19827;BME280;10074;52.018;4.726;2023-12-20T18:34:54;46291.44;;;-144.79;100.00
19827;BME280;10074;52.018;4.726;2023-12-20T18:39:54;46293.44;;;-144.79;100.00
19827;BME280;10074;52.018;4.726;2023-12-20T18:44:55;46287.44;;;-144.79;100.00
19827;BME280;10074;52.018;4.726;2023-12-20T18:49:56;46295.44;;;-144.79;100.00
19827;BME280;10074;52.018;4.726;2023-12-20T18:54:56;46293.44;;;-144.79;100.00
19827;BME280;10074;52.018;4.726;2023-12-20T18:59:56;46303.47;;;-144.79;100.00
19827;BME280;10074;52.018;4.726;2023-12-20T19:04:58;46307.47;;;-144.79;100.00
19827;BME280;10074;52.018;4.726;2023-12-20T19:10:00;46313.50;;;-144.79;100.00
19827;BME280;10074;52.018;4.726;2023-12-20T19:15:00;46309.47;;;-144.79;100.00
19827;BME280;10074;52.018;4.726;2023-12-20T19:20:01;46309.47;;;-144.79;100.00
19827;BME280;10074;52.018;4.726;2023-12-20T19:25:01;46315.50;;;-144.79;100.00
19827;BME280;10074;52.018;4.726;2023-12-20T19:30:06;46323.53;;;-144.79;100.00
19827;BME280;10074;52.018;4.726;2023-12-20T19:35:06;46321.50;;;-144.79;100.00
19827;BME280;10074;52.018;4.726;2023-12-20T19:40:07;46321.50;;;-144.79;100.00
19827;BME280;10074;52.018;4.726;2023-12-20T19:45:08;46321.50;;;-144.79;100.00
19827;BME280;10074;52.018;4.726;2023-12-20T19:50:10;46331.53;;;-144.79;100.00
19827;BME280;10074;52.018;4.726;2023-12-20T19:55:10;46327.53;;;-144.79;100.00
19827;BME280;10074;52.018;4.726;2023-12-20T20:00:11;46327.53;;;-144.79;100.00
19827;BME280;10074;52.018;4.726;2023-12-20T20:05:11;46331.53;;;-144.79;100.00
19827;BME280;10074;52.018;4.726;2023-12-20T20:10:11;46327.53;;;-144.79;100.00
19827;BME280;10074;52.018;4.726;2023-12-20T20:15:12;46321.50;;;-144.79;100.00
19827;BME280;10074;52.018;4.726;2023-12-20T20:20:12;46331.53;;;-144.79;100.00
19827;BME280;10074;52.018;4.726;2023-12-20T20:25:12;46327.53;;;-144.79;100.00
19827;BME280;10074;52.018;4.726;2023-12-20T20:30:13;46335.53;;;-144.79;100.00
19827;BME280;10074;52.018;4.726;2023-12-20T20:35:13;46339.56;;;-144.79;100.00
19827;BME280;10074;52.018;4.726;2023-12-20T20:40:14;46339.56;;;-144.79;100.00
19827;BME280;10074;52.018;4.726;2023-12-20T20:45:17;46335.53;;;-144.79;100.00
19827;BME280;10074;52.018;4.726;2023-12-20T20:50:18;46339.56;;;-144.79;100.00
19827;BME280;10074;52.018;4.726;2023-12-20T20:55:19;46329.53;;;-144.79;100.00
19827;BME280;10074;52.018;4.726;2023-12-20T21:00:19;46335.53;;;-144.79;100.00
19827;BME280;10074;52.018;4.726;2023-12-20T21:05:20;46337.56;;;-144.79;100.00
19827;BME280;10074;52.018;4.726;2023-12-20T21:10:20;46347.56;;;-144.79;100.00
19827;BME280;10074;52.018;4.726;2023-12-20T21:15:20;46351.59;;;-144.79;100.00
19827;BME280;10074;52.018;4.726;2023-12-20T21:20:21;46343.56;;;-144.79;100.00
19827;BME280;10074;52.018;4.726;2023-12-20T21:25:21;46349.59;;;-144.79;100.00
19827;BME280;10074;52.018;4.726;2023-12-20T21:30:21;46349.59;;;-144.79;100.00
19827;BME280;10074;52.018;4.726;2023-12-20T21:35:22;46351.59;;;-144.79;100.00
19827;BME280;10074;52.018;4.726;2023-12-20T21:40:22;46349.59;;;-144.79;100.00
19827;BME280;10074;52.018;4.726;2023-12-20T21:45:22;46367.63;;;-144.79;100.00
19827;BME280;10074;52.018;4.726;2023-12-20T21:50:23;46383.66;;;-144.79;100.00
19827;BME280;10074;52.018;4.726;2023-12-20T21:55:23;46385.69;;;-144.79;100.00
19827;BME280;10074;52.018;4.726;2023-12-20T22:00:23;46387.69;;;-144.79;100.00
19827;BME280;10074;52.018;4.726;2023-12-20T22:05:23;46379.66;;;-144.79;100.00
19827;BME280;10074;52.018;4.726;2023-12-20T22:10:25;46377.66;;;-144.79;100.00
19827;BME280;10074;52.018;4.726;2023-12-20T22:15:26;46375.66;;;-144.79;100.00
19827;BME280;10074;52.018;4.726;2023-12-20T22:20:27;46373.66;;;-144.79;100.00
19827;BME280;10074;52.018;4.726;2023-12-20T22:25:27;46375.66;;;-144.79;100.00
19827;BME280;10074;52.018;4.726;2023-12-20T22:30:28;46375.66;;;-144.79;100.00
19827;BME280;10074;52.018;4.726;2023-12-20T22:35:28;46369.63;;;-144.79;100.00
19827;BME280;10074;52.018;4.726;2023-12-20T22:40:28;46375.66;;;-144.79;100.00
19827;BME280;10074;52.018;4.726;2023-12-20T22:45:28;46381.66;;;-144.79;100.00
19827;BME280;10074;52.018;4.726;2023-12-20T22:50:29;46389.69;;;-144.79;100.00
19827;BME280;10074;52.018;4.726;2023-12-20T22:55:29;46387.69;;;-144.79;100.00
19827;BME280;10074;52.018;4.726;2023-12-20T23:00:29;46379.66;;;-144.79;100.00
19827;BME280;10074;52.018;4.726;2023-12-20T23:05:31;46387.69;;;-144.79;100.00
19827;BME280;10074;52.018;4.726;2023-12-20T23:10:31;46383.66;;;-144.79;100.00
19827;BME280;10074;52.018;4.726;2023-12-20T23:15:32;46391.69;;;-144.79;100.00
19827;BME280;10074;52.018;4.726;2023-12-20T23:20:33;46387.69;;;-144.79;100.00
19827;BME280;10074;52.018;4.726;2023-12-20T23:25:34;46391.69;;;-144.79;100.00
19827;BME280;10074;52.018;4.726;2023-12-20T23:30:35;46389.69;;;-144.79;100.00
19827;BME280;10074;52.018;4.726;2023-12-20T23:35:37;46393.69;;;-144.79;100.00
19827;BME280;10074;52.018;4.726;2023-12-20T23:40:38;46399.72;;;-144.79;100.00
19827;BME280;10074;52.018;4.726;2023-12-20T23:45:38;46395.69;;;-144.79;100.00
19827;BME280;10074;52.018;4.726;2023-12-20T23:50:39;46399.72;;;-144.79;100.00
19827;BME280;10074;52.018;4.726;2023-12-20T23:55:39;46395.69;;;-144.79;100.00
